Time;durP1;ratioP1;P1;durP2;ratioP2;P2;SDS_P1;SDS_P2;PMS_P1;PMS_P2;Temp;Humidity;BMP_temperature;BMP_pressure;BME280_temperature;BME280_humidity;BME280_pressure;Samples;Min_cycle;Max_cycle;Signal;HPM_P1;HPM_P2
2023/10/24 00:03:42;;;;;;;14.40;5.15;;;;;;;;;;10290394;28;20072;-65
2023/10/24 00:08:40;;;;;;;10.80;4.53;;;;;;;;;;10290884;28;20450;-66
2023/10/24 00:13:40;;;;;;;11.60;4.55;;;;;;;;;;10289250;28;20091;-64
2023/10/24 00:18:38;;;;;;;10.00;4.95;;;;;;;;;;10289841;28;20573;-65
2023/10/24 00:23:36;;;;;;;13.38;4.65;;;;;;;;;;10290159;28;20068;-65
2023/10/24 00:28:34;;;;;;;8.75;5.55;;;;;;;;;;10288216;28;20076;-65
2023/10/24 00:33:34;;;;;;;14.85;5.57;;;;;;;;;;10289763;28;20087;-65
2023/10/24 00:38:33;;;;;;;11.50;4.15;;;;;;;;;;10291217;28;20060;-65
2023/10/24 00:43:32;;;;;;;10.15;4.35;;;;;;;;;;10297321;28;20064;-66
2023/10/24 00:48:30;;;;;;;9.80;4.05;;;;;;;;;;10296487;28;20073;-65
2023/10/24 00:53:30;;;;;;;8.20;4.60;;;;;;;;;;10295044;28;20501;-65
2023/10/24 00:58:28;;;;;;;10.15;4.45;;;;;;;;;;10294302;28;20072;-66
2023/10/24 01:03:27;;;;;;;12.18;5.22;;;;;;;;;;10296961;28;20076;-65
2023/10/24 01:08:25;;;;;;;7.90;4.57;;;;;;;;;;10295392;28;20076;-65
2023/10/24 01:13:25;;;;;;;12.02;4.82;;;;;;;;;;10295689;28;20087;-66
2023/10/24 01:18:23;;;;;;;8.68;5.20;;;;;;;;;;10294853;28;20060;-66
2023/10/24 01:23:23;;;;;;;8.90;5.55;;;;;;;;;;10294908;28;20532;-65
2023/10/24 01:28:22;;;;;;;8.98;5.72;;;;;;;;;;10296013;28;20474;-65
2023/10/24 01:33:21;;;;;;;10.15;4.88;;;;;;;;;;10295511;28;20068;-65
2023/10/24 01:38:19;;;;;;;11.90;4.80;;;;;;;;;;10294151;28;20073;-66
2023/10/24 01:43:19;;;;;;;11.40;5.10;;;;;;;;;;10302033;28;20092;-66
2023/10/24 01:48:17;;;;;;;10.02;4.88;;;;;;;;;;10292777;28;20071;-66
2023/10/24 01:53:16;;;;;;;13.88;4.43;;;;;;;;;;10295388;28;20069;-66
2023/10/24 01:58:14;;;;;;;15.10;5.35;;;;;;;;;;10293765;28;20068;-65
2023/10/24 02:03:14;;;;;;;8.98;4.78;;;;;;;;;;10291674;28;20077;-66
2023/10/24 02:08:12;;;;;;;13.93;5.80;;;;;;;;;;10300474;28;20186;-65
2023/10/24 02:13:11;;;;;;;12.45;5.57;;;;;;;;;;10294066;28;20178;-65
2023/10/24 02:18:09;;;;;;;19.05;5.57;;;;;;;;;;10291247;28;20077;-65
2023/10/24 02:23:09;;;;;;;16.75;5.07;;;;;;;;;;10292372;28;20072;-66
2023/10/24 02:28:07;;;;;;;11.27;4.75;;;;;;;;;;10292302;28;20079;-65
2023/10/24 02:33:06;;;;;;;10.77;4.63;;;;;;;;;;10293048;28;20072;-66
2023/10/24 02:38:04;;;;;;;12.32;4.72;;;;;;;;;;10290462;28;20075;-66
2023/10/24 02:43:03;;;;;;;7.38;4.95;;;;;;;;;;10292285;28;20072;-66
2023/10/24 02:48:01;;;;;;;12.02;4.90;;;;;;;;;;10300078;28;20077;-66
2023/10/24 02:53:06;;;;;;;11.32;4.82;;;;;;;;;;10299242;28;20037;-66
2023/10/24 02:58:04;;;;;;;;;;;;;;;;;;10300011;28;20080;-65
2023/10/24 03:03:04;;;;;;;11.48;4.35;;;;;;;;;;10292568;28;19973;-65
2023/10/24 03:08:02;;;;;;;12.63;4.00;;;;;;;;;;10292055;28;20103;-66
2023/10/24 03:13:02;;;;;;;8.15;4.68;;;;;;;;;;10291546;28;20075;-65
2023/10/24 03:18:01;;;;;;;13.30;4.85;;;;;;;;;;10292581;28;20079;-65
2023/10/24 03:23:00;;;;;;;13.80;5.07;;;;;;;;;;10290448;28;20087;-65
2023/10/24 03:27:59;;;;;;;14.65;5.20;;;;;;;;;;10292351;28;20095;-65
2023/10/24 03:32:58;;;;;;;9.80;4.32;;;;;;;;;;10290768;28;20100;-65
2023/10/24 03:38:02;;;;;;;16.52;5.70;;;;;;;;;;10297205;28;20122;-65
2023/10/24 03:43:00;;;;;;;11.65;4.95;;;;;;;;;;10290378;28;20489;-65
2023/10/24 03:48:00;;;;;;;12.55;5.00;;;;;;;;;;10284872;28;20080;-65
2023/10/24 03:52:59;;;;;;;13.85;5.63;;;;;;;;;;10290286;28;20083;-65
2023/10/24 03:57:58;;;;;;;24.75;5.50;;;;;;;;;;10287963;28;20076;-66
2023/10/24 04:02:57;;;;;;;12.57;5.28;;;;;;;;;;10289448;28;20556;-67
2023/10/24 04:07:55;;;;;;;9.48;5.18;;;;;;;;;;10288171;28;20088;-66
2023/10/24 04:12:54;;;;;;;9.05;4.93;;;;;;;;;;10288721;28;20536;-66
2023/10/24 04:17:53;;;;;;;11.65;5.47;;;;;;;;;;10291566;28;20079;-65
2023/10/24 04:22:52;;;;;;;14.45;4.68;;;;;;;;;;10293082;28;20064;-66
2023/10/24 04:27:50;;;;;;;11.63;5.20;;;;;;;;;;10291156;28;20564;-67
2023/10/24 04:32:49;;;;;;;9.90;4.75;;;;;;;;;;10294217;28;20080;-65
2023/10/24 04:37:49;;;;;;;17.13;5.25;;;;;;;;;;10296666;28;20129;-65
2023/10/24 04:42:47;;;;;;;11.63;5.68;;;;;;;;;;10291948;28;20485;-65
2023/10/24 04:47:45;;;;;;;17.33;4.97;;;;;;;;;;10290525;28;20072;-65
2023/10/24 04:52:43;;;;;;;12.23;5.13;;;;;;;;;;10290999;28;20072;-65
2023/10/24 04:57:43;;;;;;;14.73;5.53;;;;;;;;;;10289811;28;20492;-64
2023/10/24 05:02:42;;;;;;;15.57;5.03;;;;;;;;;;10294103;28;20095;-63
2023/10/24 05:07:40;;;;;;;19.60;5.60;;;;;;;;;;10288722;28;20108;-64
2023/10/24 05:12:38;;;;;;;11.98;5.15;;;;;;;;;;10291718;28;20071;-64
2023/10/24 05:17:38;;;;;;;15.52;5.88;;;;;;;;;;10297521;28;20049;-65
2023/10/24 05:22:36;;;;;;;16.50;5.97;;;;;;;;;;10295207;28;20076;-64
2023/10/24 05:27:35;;;;;;;23.02;6.60;;;;;;;;;;10293529;28;20072;-64
2023/10/24 05:32:33;;;;;;;17.48;7.13;;;;;;;;;;10294455;28;20072;-65
2023/10/24 05:37:33;;;;;;;13.20;6.78;;;;;;;;;;10294494;28;20083;-65
2023/10/24 05:42:31;;;;;;;17.25;7.60;;;;;;;;;;10297503;28;20466;-64
2023/10/24 05:47:29;;;;;;;14.15;6.53;;;;;;;;;;10293653;28;20095;-65
2023/10/24 05:52:27;;;;;;;19.23;10.00;;;;;;;;;;10292888;28;20084;-64
2023/10/24 05:57:30;;;;;;;14.10;9.18;;;;;;;;;;10292630;28;20073;-65
2023/10/24 06:02:29;;;;;;;13.25;7.90;;;;;;;;;;10288973;28;20072;-65
2023/10/24 06:07:27;;;;;;;16.33;7.03;;;;;;;;;;10295275;28;20076;-65
2023/10/24 06:12:28;;;;;;;21.52;7.75;;;;;;;;;;10293060;28;20083;-64
2023/10/24 06:17:28;;;;;;;15.27;5.97;;;;;;;;;;10295600;28;20533;-64
2023/10/24 06:22:31;;;;;;;19.58;7.88;;;;;;;;;;10294176;28;20072;-64
2023/10/24 06:27:32;;;;;;;17.58;6.85;;;;;;;;;;10275069;28;20072;-64
2023/10/24 06:32:32;;;;;;;23.20;7.32;;;;;;;;;;10293287;28;20489;-65
2023/10/24 06:37:30;;;;;;;14.15;6.63;;;;;;;;;;10292158;28;20087;-65
2023/10/24 06:42:29;;;;;;;14.07;6.47;;;;;;;;;;10291538;28;20064;-65
2023/10/24 06:47:28;;;;;;;13.50;6.03;;;;;;;;;;10284795;28;20064;-65
2023/10/24 06:52:28;;;;;;;19.95;7.18;;;;;;;;;;10289915;28;20087;-64
2023/10/24 06:57:26;;;;;;;20.33;8.35;;;;;;;;;;10292071;28;20076;-64
2023/10/24 07:02:25;;;;;;;16.05;7.45;;;;;;;;;;10286870;28;20532;-64
2023/10/24 07:07:23;;;;;;;21.88;8.25;;;;;;;;;;10283041;28;20074;-65
2023/10/24 07:12:22;;;;;;;16.00;7.03;;;;;;;;;;10287760;28;20081;-65
2023/10/24 07:17:21;;;;;;;16.33;8.10;;;;;;;;;;10281209;28;20513;-64
2023/10/24 07:22:19;;;;;;;20.02;7.38;;;;;;;;;;10286586;28;20064;-65
2023/10/24 07:27:17;;;;;;;21.50;7.43;;;;;;;;;;10283625;28;20072;-65
2023/10/24 07:32:17;;;;;;;17.95;7.72;;;;;;;;;;10267737;28;20477;-65
2023/10/24 07:37:16;;;;;;;11.20;6.28;;;;;;;;;;10271587;28;20068;-66
2023/10/24 07:42:14;;;;;;;17.75;7.47;;;;;;;;;;10284550;28;20073;-66
2023/10/24 07:47:12;;;;;;;20.52;7.25;;;;;;;;;;10284684;28;20072;-64
2023/10/24 07:52:12;;;;;;;22.17;10.40;;;;;;;;;;10286566;28;20573;-65
2023/10/24 07:57:12;;;;;;;26.77;10.68;;;;;;;;;;10287909;28;20079;-65
2023/10/24 08:02:10;;;;;;;20.45;11.00;;;;;;;;;;10290082;28;20083;-65
2023/10/24 08:07:08;;;;;;;29.67;10.18;;;;;;;;;;10287348;28;20075;-65
2023/10/24 08:12:08;;;;;;;17.45;8.23;;;;;;;;;;10290031;28;20095;-66
2023/10/24 08:17:06;;;;;;;19.13;8.05;;;;;;;;;;10289660;28;20079;-64
2023/10/24 08:22:06;;;;;;;16.52;8.00;;;;;;;;;;10290580;28;20088;-65
2023/10/24 08:27:05;;;;;;;25.20;8.27;;;;;;;;;;10290068;28;20485;-64
2023/10/24 08:32:11;;;;;;;17.30;8.32;;;;;;;;;;10287770;28;20068;-65
2023/10/24 08:37:12;;;;;;;17.93;7.73;;;;;;;;;;10291279;28;20610;-65
2023/10/24 08:42:11;;;;;;;23.90;7.65;;;;;;;;;;10289179;28;20079;-65
2023/10/24 08:47:12;;;;;;;16.08;7.10;;;;;;;;;;10287274;28;20082;-65
2023/10/24 08:52:10;;;;;;;22.10;7.15;;;;;;;;;;10286909;28;20084;-65
2023/10/24 08:57:28;;;;;;;20.20;9.00;;;;;;;;;;10286742;28;20498;-65
2023/10/24 09:02:30;;;;;;;13.73;6.35;;;;;;;;;;10295595;28;20462;-65
2023/10/24 09:07:29;;;;;;;13.10;6.40;;;;;;;;;;10295818;28;20072;-65
2023/10/24 09:12:29;;;;;;;26.90;7.38;;;;;;;;;;10295661;28;20088;-65
2023/10/24 09:17:30;;;;;;;12.23;6.85;;;;;;;;;;10296955;28;20091;-65
2023/10/24 09:22:31;;;;;;;18.02;6.53;;;;;;;;;;10295465;28;20075;-65
2023/10/24 09:27:30;;;;;;;20.35;6.57;;;;;;;;;;10296731;28;20547;-65
2023/10/24 09:32:28;;;;;;;17.45;6.70;;;;;;;;;;10295165;28;20072;-66
2023/10/24 09:37:26;;;;;;;14.05;6.50;;;;;;;;;;10292451;28;20079;-65
2023/10/24 09:42:27;;;;;;;16.63;6.07;;;;;;;;;;10292646;28;20073;-65
2023/10/24 09:47:32;;;;;;;12.73;6.32;;;;;;;;;;10295474;28;20069;-66
2023/10/24 09:52:31;;;;;;;17.83;6.57;;;;;;;;;;10293716;28;20084;-66
2023/10/24 09:57:31;;;;;;;20.70;6.72;;;;;;;;;;10294682;28;20060;-66
2023/10/24 10:02:29;;;;;;;11.90;5.57;;;;;;;;;;10294853;28;20076;-65
2023/10/24 10:07:28;;;;;;;18.77;6.28;;;;;;;;;;10293703;28;20076;-65
2023/10/24 10:12:27;;;;;;;17.45;6.57;;;;;;;;;;10290162;28;20075;-65
2023/10/24 10:17:30;;;;;;;13.10;6.55;;;;;;;;;;10293621;28;20076;-65
2023/10/24 10:22:35;;;;;;;14.27;5.97;;;;;;;;;;10290322;28;20071;-66
2023/10/24 10:27:38;;;;;;;15.70;6.47;;;;;;;;;;10292423;28;20072;-65
2023/10/24 10:32:42;;;;;;;9.48;6.13;;;;;;;;;;10291895;28;20087;-64
2023/10/24 10:38:03;;;;;;;15.25;5.80;;;;;;;;;;10292964;28;20334;-66
2023/10/24 10:43:02;;;;;;;11.43;6.25;;;;;;;;;;10293072;28;20517;-65
2023/10/24 10:48:04;;;;;;;10.20;5.82;;;;;;;;;;10291580;28;20083;-67
2023/10/24 10:53:08;;;;;;;13.50;5.15;;;;;;;;;;10292593;28;20118;-66
2023/10/24 10:58:23;;;;;;;9.90;5.07;;;;;;;;;;10292944;28;20044;-65
2023/10/24 11:03:33;;;;;;;14.13;5.10;;;;;;;;;;10291247;28;20080;-65
2023/10/24 11:08:33;;;;;;;11.13;5.55;;;;;;;;;;10291607;28;20071;-66
2023/10/24 11:13:32;;;;;;;12.07;5.38;;;;;;;;;;10290144;28;20080;-65
2023/10/24 11:18:32;;;;;;;17.73;6.13;;;;;;;;;;10290374;28;20080;-64
2023/10/24 11:23:31;;;;;;;10.98;5.30;;;;;;;;;;10292046;28;20064;-65
2023/10/24 11:28:30;;;;;;;12.98;6.43;;;;;;;;;;10290589;28;20068;-65
2023/10/24 11:33:28;;;;;;;26.17;6.60;;;;;;;;;;10292669;28;20080;-66
2023/10/24 11:38:28;;;;;;;10.38;5.07;;;;;;;;;;10288830;28;20068;-67
2023/10/24 11:43:28;;;;;;;12.07;5.72;;;;;;;;;;10287271;28;20072;-67
2023/10/24 11:48:27;;;;;;;10.38;5.93;;;;;;;;;;10288141;28;20087;-66
2023/10/24 11:53:26;;;;;;;13.90;6.18;;;;;;;;;;10290713;28;20087;-66
2023/10/24 11:58:32;;;;;;;10.65;4.90;;;;;;;;;;10290141;28;20079;-66
2023/10/24 12:03:41;;;;;;;19.33;6.82;;;;;;;;;;10296174;28;20433;-66
2023/10/24 12:08:39;;;;;;;22.48;7.35;;;;;;;;;;10289947;28;20092;-67
2023/10/24 12:13:39;;;;;;;11.68;5.88;;;;;;;;;;10289246;28;20518;-65
2023/10/24 12:18:38;;;;;;;15.60;5.40;;;;;;;;;;10290155;28;20107;-65
2023/10/24 12:23:37;;;;;;;27.60;6.70;;;;;;;;;;10289949;28;20069;-66
2023/10/24 12:28:36;;;;;;;11.05;6.13;;;;;;;;;;10290831;28;20478;-66
2023/10/24 12:33:36;;;;;;;20.15;7.03;;;;;;;;;;10287216;28;20151;-65
2023/10/24 12:38:34;;;;;;;12.80;6.03;;;;;;;;;;10293710;28;20071;-64
2023/10/24 12:43:33;;;;;;;11.75;4.85;;;;;;;;;;10297444;28;20072;-66
2023/10/24 12:48:32;;;;;;;17.63;6.28;;;;;;;;;;10298263;28;20096;-65
2023/10/24 12:53:44;;;;;;;19.77;6.35;;;;;;;;;;10293396;28;20114;-66
2023/10/24 12:58:42;;;;;;;10.65;5.97;;;;;;;;;;10297765;28;20494;-66
2023/10/24 13:03:40;;;;;;;19.83;6.38;;;;;;;;;;10297301;28;20076;-66
2023/10/24 13:08:39;;;;;;;20.58;7.43;;;;;;;;;;10294811;28;20068;-65
2023/10/24 13:13:38;;;;;;;12.63;6.85;;;;;;;;;;10294826;28;20090;-66
2023/10/24 13:18:37;;;;;;;18.95;6.15;;;;;;;;;;10293072;28;20143;-64
2023/10/24 13:23:35;;;;;;;25.77;6.38;;;;;;;;;;10293836;28;20076;-65
2023/10/24 13:28:33;;;;;;;13.98;4.95;;;;;;;;;;10295845;28;20065;-66
2023/10/24 13:33:33;;;;;;;16.48;7.38;;;;;;;;;;10295133;28;20075;-65
2023/10/24 13:38:51;;;;;;;12.23;6.05;;;;;;;;;;10295005;28;20075;-65
2023/10/24 13:43:49;;;;;;;11.10;5.93;;;;;;;;;;10295101;28;20075;-65
2023/10/24 13:48:49;;;;;;;13.52;5.93;;;;;;;;;;10295323;28;20060;-65
2023/10/24 13:53:47;;;;;;;14.25;6.65;;;;;;;;;;10294404;28;20060;-65
2023/10/24 13:58:46;;;;;;;10.40;5.20;;;;;;;;;;10293363;28;20462;-66
2023/10/24 14:03:44;;;;;;;20.55;6.40;;;;;;;;;;10294385;28;20084;-66
2023/10/24 14:08:44;;;;;;;18.33;6.53;;;;;;;;;;10293601;28;20067;-66
2023/10/24 14:13:43;;;;;;;11.95;6.57;;;;;;;;;;10291765;28;20084;-66
2023/10/24 14:18:41;;;;;;;11.40;6.43;;;;;;;;;;10294476;28;20060;-66
2023/10/24 14:23:39;;;;;;;23.70;8.38;;;;;;;;;;10293333;28;20060;-66
2023/10/24 14:28:39;;;;;;;16.20;8.43;;;;;;;;;;10293300;28;20049;-65
2023/10/24 14:33:38;;;;;;;18.27;8.40;;;;;;;;;;10291933;28;20076;-66
2023/10/24 14:38:36;;;;;;;15.63;8.50;;;;;;;;;;10291174;28;20129;-66
2023/10/24 14:43:36;;;;;;;18.85;8.20;;;;;;;;;;10292725;28;20087;-66
2023/10/24 14:48:35;;;;;;;12.55;8.73;;;;;;;;;;10293021;28;20581;-65
2023/10/24 14:53:35;;;;;;;18.83;8.95;;;;;;;;;;10292486;28;20477;-65
2023/10/24 14:58:33;;;;;;;25.95;9.23;;;;;;;;;;10291287;28;20068;-65
2023/10/24 15:03:31;;;;;;;28.52;8.68;;;;;;;;;;10289283;28;20080;-65
2023/10/24 15:08:31;;;;;;;19.35;10.02;;;;;;;;;;10291807;28;20114;-65
2023/10/24 15:13:29;;;;;;;22.95;9.85;;;;;;;;;;10278850;28;20513;-66
2023/10/24 15:18:28;;;;;;;18.17;8.73;;;;;;;;;;10278763;28;20080;-65
2023/10/24 15:23:26;;;;;;;19.48;8.95;;;;;;;;;;10275290;28;20079;-65
2023/10/24 15:28:26;;;;;;;21.80;9.65;;;;;;;;;;10284064;28;20091;-65
2023/10/24 15:33:24;;;;;;;19.50;8.55;;;;;;;;;;10289050;28;20077;-66
2023/10/24 15:38:22;;;;;;;21.67;8.45;;;;;;;;;;10291792;28;20068;-65
2023/10/24 15:43:21;;;;;;;18.05;8.88;;;;;;;;;;10285907;28;20091;-65
2023/10/24 15:48:21;;;;;;;14.32;7.70;;;;;;;;;;10286540;28;20068;-64
2023/10/24 15:53:19;;;;;;;19.02;9.18;;;;;;;;;;10290312;28;20076;-65
2023/10/24 15:58:17;;;;;;;18.75;9.43;;;;;;;;;;10292147;28;20073;-65
2023/10/24 16:03:18;;;;;;;20.65;11.90;;;;;;;;;;10280671;28;20068;-65
2023/10/24 16:08:17;;;;;;;21.20;13.13;;;;;;;;;;10281424;28;20534;-65
2023/10/24 16:13:16;;;;;;;17.45;10.07;;;;;;;;;;10294886;28;20091;-65
2023/10/24 16:18:14;;;;;;;18.88;10.43;;;;;;;;;;10297964;28;20053;-65
2023/10/24 16:23:13;;;;;;;19.13;10.77;;;;;;;;;;10293444;28;20095;-66
2023/10/24 16:28:12;;;;;;;17.23;12.35;;;;;;;;;;10291513;28;20091;-66
2023/10/24 16:33:11;;;;;;;24.60;13.50;;;;;;;;;;10294365;28;20076;-66
2023/10/24 16:38:09;;;;;;;16.42;9.80;;;;;;;;;;10286549;28;20061;-65
2023/10/24 16:43:07;;;;;;;12.75;8.07;;;;;;;;;;10279267;28;20076;-66
2023/10/24 16:48:07;;;;;;;12.15;6.68;;;;;;;;;;10286250;28;20087;-65
2023/10/24 16:53:06;;;;;;;13.05;6.38;;;;;;;;;;10292790;28;20443;-65
2023/10/24 16:58:04;;;;;;;11.55;5.38;;;;;;;;;;10283021;28;20513;-67
2023/10/24 17:03:02;;;;;;;14.70;5.32;;;;;;;;;;10290968;28;20374;-66
2023/10/24 17:08:03;;;;;;;11.25;4.50;;;;;;;;;;10289153;28;20401;-66
2023/10/24 17:13:01;;;;;;;14.18;6.97;;;;;;;;;;10291083;28;20077;-66
2023/10/24 17:17:59;;;;;;;18.98;12.30;;;;;;;;;;10288510;28;20072;-66
2023/10/24 17:22:58;;;;;;;12.85;8.38;;;;;;;;;;10286503;28;20494;-66
2023/10/24 17:27:57;;;;;;;12.63;4.90;;;;;;;;;;10285122;28;20083;-65
2023/10/24 17:32:56;;;;;;;17.85;6.13;;;;;;;;;;10292271;28;20076;-65
2023/10/24 17:37:54;;;;;;;15.73;5.65;;;;;;;;;;10293928;28;20334;-65
2023/10/24 17:42:54;;;;;;;15.98;5.03;;;;;;;;;;10280571;28;20083;-66
2023/10/24 17:47:53;;;;;;;15.95;4.57;;;;;;;;;;10282837;28;20509;-65
2023/10/24 17:52:52;;;;;;;12.75;4.70;;;;;;;;;;10286054;28;20080;-65
2023/10/24 17:57:50;;;;;;;12.63;4.25;;;;;;;;;;10291729;28;20727;-66
2023/10/24 18:02:48;;;;;;;11.60;4.10;;;;;;;;;;10292473;28;20088;-66
2023/10/24 18:07:49;;;;;;;9.65;4.50;;;;;;;;;;10293813;28;20083;-65
2023/10/24 18:12:50;;;;;;;18.45;5.25;;;;;;;;;;10280048;28;20084;-66
2023/10/24 18:17:49;;;;;;;13.70;4.22;;;;;;;;;;10276904;28;20551;-66
2023/10/24 18:22:52;;;;;;;9.73;4.32;;;;;;;;;;10294749;28;20072;-65
2023/10/24 18:27:50;;;;;;;13.23;4.95;;;;;;;;;;10288906;28;20080;-66
2023/10/24 18:32:49;;;;;;;12.38;4.63;;;;;;;;;;10280589;28;20084;-65
2023/10/24 18:37:47;;;;;;;11.52;3.72;;;;;;;;;;10286978;28;20069;-65
2023/10/24 18:42:49;;;;;;;18.92;3.90;;;;;;;;;;10285127;28;20084;-65
2023/10/24 18:47:48;;;;;;;16.00;4.63;;;;;;;;;;10285549;28;20072;-65
2023/10/24 18:52:46;;;;;;;12.82;4.32;;;;;;;;;;10288690;28;20077;-65
2023/10/24 18:57:44;;;;;;;13.98;3.92;;;;;;;;;;10284286;28;20503;-66
2023/10/24 19:02:49;;;;;;;9.20;4.38;;;;;;;;;;10287882;28;20080;-66
2023/10/24 19:07:51;;;;;;;8.95;3.50;;;;;;;;;;10289380;28;20509;-65
2023/10/24 19:12:49;;;;;;;7.25;3.97;;;;;;;;;;10288125;28;20170;-65
2023/10/24 19:17:49;;;;;;;9.70;4.38;;;;;;;;;;10284407;28;20115;-65
2023/10/24 19:22:48;;;;;;;10.23;3.30;;;;;;;;;;10282487;28;20127;-66
2023/10/24 19:27:47;;;;;;;12.07;4.70;;;;;;;;;;10289948;28;20522;-65
2023/10/24 19:32:46;;;;;;;7.68;3.53;;;;;;;;;;10288573;28;20107;-65
2023/10/24 19:37:46;;;;;;;6.53;3.28;;;;;;;;;;10287800;28;20084;-65
2023/10/24 19:42:45;;;;;;;6.10;4.00;;;;;;;;;;10289529;28;20076;-65
2023/10/24 19:47:49;;;;;;;10.80;3.80;;;;;;;;;;10281754;28;20068;-65
2023/10/24 19:52:49;;;;;;;13.97;4.53;;;;;;;;;;10289810;28;20080;-66
2023/10/24 19:57:47;;;;;;;8.85;3.58;;;;;;;;;;10289577;28;20081;-65
2023/10/24 20:02:46;;;;;;;10.73;3.80;;;;;;;;;;10287985;28;20595;-65
2023/10/24 20:07:45;;;;;;;8.82;3.40;;;;;;;;;;10284645;28;20076;-65
2023/10/24 20:12:51;;;;;;;9.82;3.50;;;;;;;;;;10284637;28;20077;-65
2023/10/24 20:17:53;;;;;;;14.40;4.03;;;;;;;;;;10281204;28;20109;-66
2023/10/24 20:22:53;;;;;;;9.73;4.22;;;;;;;;;;10280142;28;20494;-65
2023/10/24 20:27:52;;;;;;;6.05;4.00;;;;;;;;;;10282498;28;20171;-65
2023/10/24 20:32:51;;;;;;;9.18;4.03;;;;;;;;;;10279387;28;20076;-65
2023/10/24 20:37:50;;;;;;;9.25;4.00;;;;;;;;;;10283108;28;20079;-65
2023/10/24 20:42:48;;;;;;;9.07;3.40;;;;;;;;;;10286253;28;20482;-65
2023/10/24 20:47:48;;;;;;;9.02;3.53;;;;;;;;;;10284495;28;20076;-65
2023/10/24 20:52:46;;;;;;;8.63;3.88;;;;;;;;;;10284906;28;20069;-65
2023/10/24 20:57:45;;;;;;;10.65;4.25;;;;;;;;;;10286540;28;20084;-65
2023/10/24 21:02:43;;;;;;;12.95;3.75;;;;;;;;;;10294429;28;20486;-66
2023/10/24 21:07:50;;;;;;;13.25;4.45;;;;;;;;;;10290923;28;20084;-64
2023/10/24 21:12:50;;;;;;;9.65;3.60;;;;;;;;;;10293939;28;20069;-66
2023/10/24 21:17:48;;;;;;;15.18;5.90;;;;;;;;;;10293058;28;20079;-64
2023/10/24 21:22:48;;;;;;;11.05;3.70;;;;;;;;;;10293036;28;20506;-65
2023/10/24 21:27:46;;;;;;;13.95;4.25;;;;;;;;;;10289930;28;20076;-65
2023/10/24 21:32:45;;;;;;;11.50;4.13;;;;;;;;;;10289618;28;20072;-66
2023/10/24 21:37:43;;;;;;;13.60;4.75;;;;;;;;;;10293168;28;20078;-66
2023/10/24 21:42:42;;;;;;;8.95;4.05;;;;;;;;;;10294328;28;20088;-65
2023/10/24 21:47:46;;;;;;;12.70;4.88;;;;;;;;;;10294982;28;20095;-65
2023/10/24 21:52:44;;;;;;;21.67;5.68;;;;;;;;;;10296704;28;20064;-65
2023/10/24 21:57:44;;;;;;;12.73;5.00;;;;;;;;;;10293933;28;20073;-65
2023/10/24 22:02:42;;;;;;;14.05;5.55;;;;;;;;;;10293610;28;20068;-65
2023/10/24 22:07:41;;;;;;;17.95;5.00;;;;;;;;;;10293695;28;20083;-65
2023/10/24 22:12:39;;;;;;;17.55;6.18;;;;;;;;;;10293189;28;20079;-65
2023/10/24 22:17:39;;;;;;;12.55;4.78;;;;;;;;;;10294074;28;20085;-65
2023/10/24 22:22:37;;;;;;;13.55;5.53;;;;;;;;;;10294812;28;20068;-65
2023/10/24 22:27:35;;;;;;;12.75;5.43;;;;;;;;;;10293394;28;20068;-65
2023/10/24 22:32:34;;;;;;;17.90;6.00;;;;;;;;;;10293831;28;20068;-65
2023/10/24 22:37:34;;;;;;;19.00;5.43;;;;;;;;;;10290946;28;20095;-65
2023/10/24 22:42:32;;;;;;;18.05;5.68;;;;;;;;;;10290597;28;20080;-65
2023/10/24 22:47:30;;;;;;;16.30;8.48;;;;;;;;;;10293170;28;20092;-65
2023/10/24 22:52:29;;;;;;;24.10;6.00;;;;;;;;;;10293460;28;20103;-65
2023/10/24 22:57:28;;;;;;;12.52;5.35;;;;;;;;;;10290361;28;20084;-65
2023/10/24 23:02:26;;;;;;;21.45;6.18;;;;;;;;;;10292608;28;20052;-65
2023/10/24 23:07:25;;;;;;;16.10;6.22;;;;;;;;;;10289365;28;20057;-65
2023/10/24 23:12:23;;;;;;;18.90;5.38;;;;;;;;;;10292308;28;20076;-65
2023/10/24 23:17:23;;;;;;;18.65;6.20;;;;;;;;;;10290856;28;20095;-65
2023/10/24 23:22:22;;;;;;;15.80;5.78;;;;;;;;;;10272265;28;20080;-65
2023/10/24 23:27:20;;;;;;;12.20;6.28;;;;;;;;;;10291429;28;20076;-65
2023/10/24 23:32:19;;;;;;;17.10;5.45;;;;;;;;;;10290628;28;20068;-65
2023/10/24 23:37:19;;;;;;;22.80;6.50;;;;;;;;;;10291434;28;20072;-66
2023/10/24 23:42:17;;;;;;;17.55;5.40;;;;;;;;;;10291924;28;20076;-66
2023/10/24 23:47:15;;;;;;;16.33;6.43;;;;;;;;;;10290203;28;20076;-65
2023/10/24 23:52:13;;;;;;;18.27;6.63;;;;;;;;;;10289229;28;20096;-66
2023/10/24 23:57:13;;;;;;;15.82;5.43;;;;;;;;;;10288693;28;20072;-66
